LATI/TIA METAR and TAF weather

Enter ICAO airport designator
Station Type Date Time Source
LATI METAR 2022/11/26 09:20 UTC NOAA

LATI 260920Z VRB02KT 9999 BKN140 11/04 Q1020 NOSIG


Station Type Date Time Source
LATI Decoded METAR 2022/11/26 09:20 UTC NOAA

Tirana, Albania (LATI) 41-20N 019-47E 90M
Nov 26, 2022 - 04:20 AM EST / 2022.11.26 0920 UTC
Wind: Variable at 2 MPH (2 KT):0
Visibility: greater than 7 mile(s):0
Sky conditions: mostly cloudy
Temperature: 51 F (11 C)
Dew Point: 39 F (4 C)
Relative Humidity: 61%
Pressure (altimeter): 30.12 in. Hg (1020 hPa)
ob: LATI 260920Z VRB02KT 9999 BKN140 11/04 Q1020 NOSIG
cycle: 9

Station Type Date Time Source
LATI TAF 2022/11/26 06:06 UTC NOAA

TAF LATI 260500Z 2606/2706 VRB05KT CAVOK TX17/2612Z TN04/2705Z
TEMPO 2609/2617 SCT040 BKN090

Example: see airport list